createdAt,value
2022-10-13T00:00:18.422Z,101012.15
2022-10-13T00:02:49.266Z,101013.19
2022-10-13T00:05:19.811Z,101012.29
2022-10-13T00:07:50.275Z,101009.61
2022-10-13T00:10:20.999Z,101004.27
2022-10-13T00:12:51.804Z,101003.12
2022-10-13T00:15:26.148Z,101006.36
2022-10-13T00:17:56.611Z,101003.59
2022-10-13T00:20:27.069Z,101004.66
2022-10-13T00:22:57.402Z,101006.80
2022-10-13T00:25:27.979Z,101002.08
2022-10-13T00:27:58.392Z,101001.23
2022-10-13T00:30:38.393Z,101001.05
2022-10-13T00:33:10.082Z,100996.98
2022-10-13T00:35:45.966Z,100997.89
2022-10-13T00:38:20.180Z,100997.65
2022-10-13T00:40:52.806Z,100994.79
2022-10-13T00:43:25.391Z,100995.25
2022-10-13T00:45:56.703Z,100993.23
2022-10-13T00:48:30.949Z,100990.75
2022-10-13T00:51:01.578Z,100988.41
2022-10-13T00:53:36.574Z,100984.73
2022-10-13T00:56:10.832Z,100986.51
2022-10-13T00:58:41.869Z,100985.35
2022-10-13T01:01:12.282Z,100987.11
2022-10-13T01:03:43.290Z,100991.33
2022-10-13T01:06:14.606Z,100993.96
2022-10-13T01:08:45.387Z,100995.05
2022-10-13T01:11:32.393Z,100995.61
2022-10-13T01:14:15.336Z,100993.02
2022-10-13T01:16:55.826Z,100991.44
2022-10-13T01:19:59.808Z,100988.64
2022-10-13T01:22:42.745Z,100988.80
2022-10-13T01:25:28.512Z,100986.52
2022-10-13T01:28:18.554Z,100980.88
2022-10-13T01:30:52.895Z,100983.89
2022-10-13T01:33:31.676Z,100986.86
2022-10-13T01:36:14.720Z,100988.25
2022-10-13T01:38:54.001Z,100987.85
2022-10-13T01:41:32.407Z,100990.30
2022-10-13T01:44:12.703Z,100994.02
2022-10-13T01:46:47.918Z,100995.05
2022-10-13T01:49:23.362Z,100990.79
2022-10-13T01:51:55.551Z,100992.38
2022-10-13T01:54:26.044Z,100989.59
2022-10-13T01:56:57.589Z,100986.79
2022-10-13T01:59:30.696Z,100983.00
2022-10-13T02:02:13.081Z,100984.88
2022-10-13T02:04:54.048Z,100986.57
2022-10-13T02:07:29.080Z,100991.27
2022-10-13T02:10:09.386Z,100989.27
2022-10-13T02:12:45.427Z,100987.77
2022-10-13T02:15:20.536Z,100989.95
2022-10-13T02:17:51.831Z,100990.54
2022-10-13T02:20:24.520Z,100986.23
2022-10-13T02:23:02.083Z,100985.73
2022-10-13T02:25:34.598Z,100984.53
2022-10-13T02:28:06.501Z,100987.77
2022-10-13T02:30:42.144Z,100978.55
2022-10-13T02:33:13.670Z,100978.41
2022-10-13T02:35:44.436Z,100972.84
2022-10-13T02:38:15.238Z,100970.47
2022-10-13T02:40:45.812Z,100969.31
2022-10-13T02:43:16.705Z,100971.33
2022-10-13T02:45:47.153Z,100968.36
2022-10-13T02:48:18.724Z,100962.79
2022-10-13T02:50:50.126Z,100962.45
2022-10-13T02:53:19.088Z,100958.77
2022-10-13T02:55:49.532Z,100953.58
2022-10-13T02:58:19.978Z,100952.94
2022-10-13T03:00:50.506Z,100949.15
2022-10-13T03:03:21.252Z,100944.46
2022-10-13T03:05:52.747Z,100944.16
2022-10-13T03:08:24.889Z,100942.80
2022-10-13T03:10:55.323Z,100944.92
2022-10-13T03:13:25.773Z,100946.85
2022-10-13T03:15:56.222Z,100953.94
2022-10-13T03:18:26.516Z,100955.41
2022-10-13T03:21:03.254Z,100954.73
2022-10-13T03:23:33.945Z,100949.63
2022-10-13T03:26:04.784Z,100951.59
2022-10-13T03:28:35.219Z,100953.38
2022-10-13T03:31:08.544Z,100957.18
2022-10-13T03:33:38.908Z,100962.39
2022-10-13T03:36:11.553Z,100959.16
2022-10-13T03:38:43.699Z,100958.55
2022-10-13T03:41:16.972Z,100953.77
2022-10-13T03:43:48.323Z,100951.96
2022-10-13T03:46:19.869Z,100947.15
2022-10-13T03:48:50.294Z,100948.16
2022-10-13T03:51:23.084Z,100945.63
2022-10-13T03:53:54.870Z,100946.80
2022-10-13T03:56:26.954Z,100945.60
2022-10-13T03:58:58.850Z,100943.57
2022-10-13T04:01:30.933Z,100938.09
2022-10-13T04:04:03.197Z,100945.24
2022-10-13T04:06:33.685Z,100948.23
2022-10-13T04:09:04.233Z,100949.06
2022-10-13T04:11:35.018Z,100953.47
2022-10-13T04:14:05.490Z,100957.52
2022-10-13T04:16:35.777Z,100960.86
2022-10-13T04:19:09.028Z,100962.77
2022-10-13T04:21:39.789Z,100961.70
2022-10-13T04:24:12.664Z,100956.40
2022-10-13T04:26:43.651Z,100957.10
2022-10-13T04:29:14.422Z,100954.09
2022-10-13T04:31:44.855Z,100956.87
2022-10-13T04:34:15.233Z,100960.73
2022-10-13T04:36:45.584Z,100959.66
2022-10-13T04:39:15.942Z,100964.42
2022-10-13T04:41:47.493Z,100963.58
2022-10-13T04:44:17.770Z,100960.27
2022-10-13T04:46:48.226Z,100961.02
2022-10-13T04:49:18.611Z,100955.21
2022-10-13T04:51:49.012Z,100951.20
2022-10-13T04:54:19.385Z,100950.67
2022-10-13T04:56:49.769Z,100949.63
2022-10-13T04:59:20.090Z,100950.89
2022-10-13T05:01:50.453Z,100950.02
2022-10-13T05:04:20.855Z,100947.02
2022-10-13T05:07:16.358Z,100947.88
2022-10-13T05:09:41.702Z,100944.16
2022-10-13T05:12:14.221Z,100941.63
2022-10-13T05:14:44.523Z,100944.73
2022-10-13T05:17:14.883Z,100943.59
2022-10-13T05:19:45.305Z,100933.23
2022-10-13T05:22:15.669Z,100931.20
2022-10-13T05:24:46.031Z,100924.06
2022-10-13T05:27:16.435Z,100914.17
2022-10-13T05:29:46.944Z,100908.27
2022-10-13T05:32:17.623Z,100906.05
2022-10-13T05:34:50.075Z,100900.73
2022-10-13T05:37:22.594Z,100896.68
2022-10-13T05:39:53.909Z,100889.59
2022-10-13T05:42:23.279Z,100890.69
2022-10-13T05:44:54.275Z,100895.69
2022-10-13T05:47:28.104Z,100896.30
2022-10-13T05:49:59.763Z,100895.35
2022-10-13T05:52:33.461Z,100891.92
2022-10-13T05:55:07.346Z,100886.55
2022-10-13T05:57:42.075Z,100880.33
2022-10-13T06:00:15.783Z,100880.17
2022-10-13T06:02:50.696Z,100880.06
2022-10-13T06:05:24.540Z,100881.31
2022-10-13T06:07:56.987Z,100884.48
2022-10-13T06:10:28.052Z,100882.71
2022-10-13T06:12:58.386Z,100880.25
2022-10-13T06:15:28.823Z,100879.73
2022-10-13T06:18:00.140Z,100883.60
2022-10-13T06:20:30.535Z,100884.13
2022-10-13T06:23:01.015Z,100881.65
2022-10-13T06:25:31.372Z,100887.11
2022-10-13T06:28:01.810Z,100886.02
2022-10-13T06:30:32.173Z,100888.45
2022-10-13T06:33:02.501Z,100888.35
2022-10-13T06:35:33.934Z,100885.80
2022-10-13T06:38:04.843Z,100888.86
2022-10-13T06:40:35.153Z,100892.84
2022-10-13T06:43:06.099Z,100892.17
2022-10-13T06:45:37.578Z,100893.05
2022-10-13T06:48:08.271Z,100899.88
2022-10-13T06:50:42.812Z,100906.95
2022-10-13T06:53:13.715Z,100904.67
2022-10-13T06:55:44.086Z,100902.47
2022-10-13T06:58:14.927Z,100905.84
2022-10-13T07:00:45.336Z,100914.22
2022-10-13T07:03:16.192Z,100920.44
2022-10-13T07:05:46.478Z,100918.06
2022-10-13T07:08:16.897Z,100915.39
2022-10-13T07:10:47.461Z,100914.95
2022-10-13T07:13:17.865Z,100918.73
2022-10-13T07:15:48.313Z,100914.81
2022-10-13T07:18:19.979Z,100907.88
2022-10-13T07:20:50.422Z,100897.66
2022-10-13T07:23:20.811Z,100897.41
2022-10-13T07:25:51.223Z,100904.73
2022-10-13T07:28:23.637Z,100901.31
2022-10-13T07:30:54.915Z,100895.45
2022-10-13T07:33:25.535Z,100897.48
2022-10-13T07:36:01.896Z,100881.55
2022-10-13T07:38:32.304Z,100881.54
2022-10-13T07:41:04.447Z,100888.09
2022-10-13T07:43:35.047Z,100892.91
2022-10-13T07:46:09.700Z,100892.16
2022-10-13T07:48:40.520Z,100890.41
2022-10-13T07:51:13.114Z,100895.48
2022-10-13T07:53:46.608Z,100894.55
2022-10-13T07:56:18.373Z,100889.36
2022-10-13T07:58:49.646Z,100884.31
2022-10-13T08:01:20.006Z,100879.59
2022-10-13T08:03:50.903Z,100867.60
2022-10-13T08:06:22.062Z,100853.70
2022-10-13T08:08:55.307Z,100846.43
2022-10-13T08:11:26.632Z,100851.23
2022-10-13T08:14:00.908Z,100863.05
2022-10-13T08:16:32.571Z,100864.73
2022-10-13T08:19:03.056Z,100868.26
2022-10-13T08:24:24.258Z,100863.98
2022-10-13T08:26:54.959Z,100864.54
2022-10-13T08:29:25.373Z,100864.16
2022-10-13T08:31:56.587Z,100859.08
2022-10-13T08:34:28.314Z,100861.73
2022-10-13T08:37:00.322Z,100872.54
2022-10-13T08:39:31.941Z,100876.27
2022-10-13T08:42:03.058Z,100874.41
2022-10-13T08:47:42.423Z,100868.88
2022-10-13T08:50:22.468Z,100871.69
2022-10-13T08:52:58.039Z,100870.02
2022-10-13T08:55:32.643Z,100874.55
2022-10-13T08:58:10.761Z,100884.64
2022-10-13T09:00:42.539Z,100884.00
2022-10-13T09:03:26.014Z,100887.98
2022-10-13T09:06:12.455Z,100892.20
2022-10-13T09:08:46.454Z,100894.36
2022-10-13T09:11:16.885Z,100895.23
2022-10-13T09:13:47.638Z,100900.02
2022-10-13T09:16:26.678Z,100898.67
2022-10-13T09:19:12.764Z,100903.48
2022-10-13T09:21:43.430Z,100901.92
2022-10-13T09:24:19.009Z,100906.84
2022-10-13T09:26:52.583Z,100906.15
2022-10-13T09:29:27.606Z,100901.08
2022-10-13T09:32:14.247Z,100893.81
2022-10-13T09:34:44.998Z,100891.13
2022-10-13T09:37:25.887Z,100888.80
2022-10-13T09:40:21.252Z,100891.30
2022-10-13T09:42:55.006Z,100891.90
2022-10-13T09:45:27.634Z,100888.08
2022-10-13T09:48:01.529Z,100889.30
2022-10-13T09:50:33.370Z,100884.42
2022-10-13T09:53:24.230Z,100885.33
2022-10-13T09:56:10.808Z,100884.70
2022-10-13T09:58:49.568Z,100877.92
2022-10-13T10:01:26.576Z,100880.66
2022-10-13T10:03:58.426Z,100869.71
2022-10-13T10:06:28.823Z,100869.23
2022-10-13T10:09:06.668Z,100867.06
2022-10-13T10:11:43.349Z,100869.51
2022-10-13T10:14:25.030Z,100867.04
2022-10-13T10:17:03.297Z,100872.50
2022-10-13T10:19:45.689Z,100880.44
2022-10-13T10:22:25.883Z,100883.04
2022-10-13T10:25:04.780Z,100881.01
2022-10-13T10:27:44.072Z,100876.90
2022-10-13T10:30:19.366Z,100880.02
2022-10-13T10:32:55.971Z,100878.89
2022-10-13T10:35:42.300Z,100874.52
2022-10-13T10:38:28.221Z,100867.58
2022-10-13T10:41:08.854Z,100871.21
2022-10-13T10:43:48.067Z,100867.91
2022-10-13T10:46:24.022Z,100869.38
2022-10-13T10:48:59.943Z,100863.77
2022-10-13T10:51:34.212Z,100852.86
2022-10-13T10:54:18.516Z,100854.83
2022-10-13T10:56:54.387Z,100844.08
2022-10-13T10:59:33.101Z,100835.67
2022-10-13T11:02:20.765Z,100833.52
2022-10-13T11:04:54.222Z,100834.02
2022-10-13T11:08:01.248Z,100827.50
2022-10-13T11:10:32.137Z,100824.71
2022-10-13T11:13:22.347Z,100822.86
2022-10-13T11:15:53.162Z,100822.85
2022-10-13T11:19:12.779Z,100816.29
2022-10-13T11:22:26.587Z,100797.56
2022-10-13T11:25:04.352Z,100792.00
2022-10-13T11:27:54.560Z,100785.27
2022-10-13T11:30:50.562Z,100779.42
2022-10-13T11:33:54.655Z,100774.33
2022-10-13T11:36:51.732Z,100765.02
2022-10-13T11:39:59.772Z,100756.30
2022-10-13T11:42:49.225Z,100736.98
2022-10-13T11:45:45.819Z,100739.54
2022-10-13T11:48:39.964Z,100733.81
2022-10-13T11:51:26.867Z,100725.23
2022-10-13T11:54:07.278Z,100723.12
2022-10-13T11:56:49.891Z,100723.42
2022-10-13T11:59:26.843Z,100719.41
2022-10-13T12:01:59.990Z,100712.81
2022-10-13T12:04:30.765Z,100707.45
2022-10-13T12:07:04.600Z,100709.17
2022-10-13T12:09:37.466Z,100707.98
2022-10-13T12:12:16.459Z,100707.21
2022-10-13T12:14:51.510Z,100711.04
2022-10-13T12:17:31.544Z,100711.32
2022-10-13T12:20:19.058Z,100714.52
2022-10-13T12:22:51.471Z,100712.27
2022-10-13T12:25:24.676Z,100710.00
2022-10-13T12:28:01.513Z,100703.79
2022-10-13T12:30:36.307Z,100704.76
2022-10-13T12:33:20.427Z,100704.73
2022-10-13T12:35:50.875Z,100699.23
2022-10-13T12:38:21.593Z,100696.25
2022-10-13T12:40:54.480Z,100694.23
2022-10-13T12:43:28.165Z,100690.88
2022-10-13T12:45:59.039Z,100694.61
2022-10-13T12:48:35.089Z,100692.30
2022-10-13T12:51:23.694Z,100691.75
2022-10-13T12:53:54.230Z,100694.64
2022-10-13T12:56:32.040Z,100696.29
2022-10-13T12:59:02.887Z,100693.97
2022-10-13T13:01:35.509Z,100692.34
2022-10-13T13:04:28.491Z,100697.28
2022-10-13T13:07:00.782Z,100695.43
2022-10-13T13:09:34.394Z,100686.02
2022-10-13T13:12:27.718Z,100687.94
2022-10-13T13:14:58.620Z,100679.23
2022-10-13T13:17:56.624Z,100674.15
2022-10-13T13:20:26.961Z,100677.16
2022-10-13T13:22:57.374Z,100684.84
2022-10-13T13:25:28.264Z,100693.88
2022-10-13T13:27:58.725Z,100696.24
2022-10-13T13:30:29.814Z,100685.19
2022-10-13T13:33:00.315Z,100680.05
2022-10-13T13:35:30.837Z,100681.60
2022-10-13T13:38:01.617Z,100685.40
2022-10-13T13:40:32.397Z,100685.36
2022-10-13T13:43:02.958Z,100680.10
2022-10-13T13:45:36.480Z,100677.86
2022-10-13T13:48:13.110Z,100687.77
2022-10-13T13:50:43.697Z,100681.52
2022-10-13T13:53:14.068Z,100666.40
2022-10-13T13:55:47.531Z,100651.90
2022-10-13T13:58:20.760Z,100637.52
2022-10-13T14:00:51.328Z,100637.02
2022-10-13T14:03:21.765Z,100643.29
2022-10-13T14:05:52.155Z,100645.19
2022-10-13T14:08:22.782Z,100638.46
2022-10-13T14:10:53.451Z,100629.11
2022-10-13T14:13:25.397Z,100636.51
2022-10-13T14:16:01.836Z,100642.06
2022-10-13T14:18:32.701Z,100641.73
2022-10-13T14:21:06.087Z,100643.59
2022-10-13T14:23:36.584Z,100640.09
2022-10-13T14:26:10.813Z,100642.94
2022-10-13T14:28:43.660Z,100651.09
2022-10-13T14:31:14.614Z,100653.95
2022-10-13T14:33:47.224Z,100646.70
2022-10-13T14:36:20.478Z,100645.26
2022-10-13T14:38:54.875Z,100638.20
2022-10-13T14:41:26.274Z,100628.73
2022-10-13T14:44:01.594Z,100627.89
2022-10-13T14:46:34.627Z,100631.56
2022-10-13T14:49:05.107Z,100640.80
2022-10-13T14:51:36.750Z,100647.19
2022-10-13T14:54:07.876Z,100652.48
2022-10-13T14:56:38.770Z,100654.23
2022-10-13T14:59:11.211Z,100651.38
2022-10-13T15:01:43.864Z,100648.33
2022-10-13T15:04:14.155Z,100648.81
2022-10-13T15:06:44.596Z,100652.09
2022-10-13T15:09:15.027Z,100655.19
2022-10-13T15:11:46.287Z,100659.36
2022-10-13T15:14:15.182Z,100659.11
2022-10-13T15:16:45.574Z,100650.98
2022-10-13T15:19:15.993Z,100644.13
2022-10-13T15:21:46.312Z,100643.42
2022-10-13T15:24:16.637Z,100643.52
2022-10-13T15:26:48.816Z,100648.23
2022-10-13T15:29:19.366Z,100638.92
2022-10-13T15:31:49.788Z,100639.33
2022-10-13T15:34:20.229Z,100638.45
2022-10-13T15:36:50.637Z,100637.36
2022-10-13T15:39:21.012Z,100634.45
2022-10-13T15:41:51.282Z,100630.47
2022-10-13T15:44:22.887Z,100629.02
2022-10-13T15:47:07.543Z,100626.00
2022-10-13T15:49:39.420Z,100624.76
2022-10-13T15:52:09.869Z,100628.75
2022-10-13T15:54:41.043Z,100628.89
2022-10-13T15:57:11.772Z,100627.99
2022-10-13T15:59:42.333Z,100626.96
2022-10-13T16:02:13.056Z,100629.83
2022-10-13T16:04:43.440Z,100631.84
2022-10-13T16:07:13.916Z,100634.02
2022-10-13T16:09:44.257Z,100630.16
2022-10-13T16:12:14.761Z,100631.85
2022-10-13T16:14:45.238Z,100629.51
2022-10-13T16:17:15.538Z,100630.86
2022-10-13T16:19:45.956Z,100635.33
2022-10-13T16:22:16.390Z,100636.75
2022-10-13T16:24:46.970Z,100636.16
2022-10-13T16:27:17.278Z,100633.81
2022-10-13T16:29:47.653Z,100635.92
2022-10-13T16:32:18.418Z,100636.63
2022-10-13T16:34:50.766Z,100630.14
2022-10-13T16:37:22.807Z,100626.87
2022-10-13T16:39:53.488Z,100628.26
2022-10-13T16:42:23.894Z,100625.37
2022-10-13T16:44:54.369Z,100626.31
2022-10-13T16:47:25.141Z,100634.17
2022-10-13T16:49:55.698Z,100640.02
2022-10-13T16:52:27.576Z,100646.51
2022-10-13T16:54:57.902Z,100644.31
2022-10-13T16:57:29.692Z,100646.14
2022-10-13T17:00:00.476Z,100641.79
2022-10-13T17:02:32.082Z,100643.64
2022-10-13T17:05:02.456Z,100641.91
2022-10-13T17:07:37.595Z,100636.55
2022-10-13T17:10:24.015Z,100636.30
2022-10-13T17:12:55.496Z,100636.09
2022-10-13T17:15:25.905Z,100637.29
2022-10-13T17:17:57.222Z,100644.80
2022-10-13T17:20:25.978Z,100646.42
2022-10-13T17:22:56.281Z,100647.63
2022-10-13T17:25:27.274Z,100644.88
2022-10-13T17:27:57.738Z,100646.52
2022-10-13T17:30:28.253Z,100644.55
2022-10-13T17:33:03.451Z,100640.13
2022-10-13T17:35:37.350Z,100642.28
2022-10-13T17:38:08.594Z,100639.09
2022-10-13T17:40:39.058Z,100640.09
2022-10-13T17:43:09.949Z,100638.94
2022-10-13T17:45:40.512Z,100641.65
2022-10-13T17:48:14.134Z,100639.02
2022-10-13T17:50:45.704Z,100640.27
2022-10-13T17:53:16.013Z,100645.64
2022-10-13T17:55:46.986Z,100644.66
2022-10-13T17:58:16.245Z,100647.41
2022-10-13T18:01:11.874Z,100649.61
2022-10-13T18:03:37.390Z,100649.43
2022-10-13T18:06:09.854Z,100651.29
2022-10-13T18:08:40.401Z,100647.00
2022-10-13T18:11:13.390Z,100643.36
2022-10-13T18:13:45.135Z,100643.61
2022-10-13T18:16:17.259Z,100646.34
2022-10-13T18:18:50.058Z,100646.40
2022-10-13T18:21:24.081Z,100653.57
2022-10-13T18:23:56.418Z,100653.27
2022-10-13T18:26:28.242Z,100652.61
2022-10-13T18:28:59.661Z,100651.58
2022-10-13T18:31:32.624Z,100651.77
2022-10-13T18:34:06.527Z,100650.94
2022-10-13T18:36:39.588Z,100646.41
2022-10-13T18:39:14.878Z,100643.06
2022-10-13T18:41:49.228Z,100647.18
2022-10-13T18:44:18.184Z,100649.56
2022-10-13T18:46:52.346Z,100646.41
2022-10-13T18:49:30.964Z,100645.64
2022-10-13T18:52:02.762Z,100646.48
2022-10-13T18:54:34.379Z,100645.70
2022-10-13T18:57:04.828Z,100646.34
2022-10-13T18:59:38.719Z,100648.05
2022-10-13T19:02:14.538Z,100650.11
2022-10-13T19:04:45.131Z,100650.59
2022-10-13T19:07:15.697Z,100647.80
2022-10-13T19:09:46.208Z,100649.04
2022-10-13T19:12:16.782Z,100648.55
2022-10-13T19:14:47.649Z,100646.26
2022-10-13T19:17:18.320Z,100642.81
2022-10-13T19:19:49.197Z,100638.08
2022-10-13T19:22:19.696Z,100642.15
2022-10-13T19:24:50.164Z,100645.31
2022-10-13T19:27:23.130Z,100645.31
2022-10-13T19:29:55.337Z,100648.57
2022-10-13T19:32:25.879Z,100647.12
2022-10-13T19:34:56.225Z,100648.52
2022-10-13T19:37:26.580Z,100652.65
2022-10-13T19:39:57.029Z,100658.67
2022-10-13T19:42:27.431Z,100660.33
2022-10-13T19:44:58.220Z,100657.00
2022-10-13T19:47:29.053Z,100656.04
2022-10-13T19:49:59.514Z,100656.69
2022-10-13T19:52:30.530Z,100663.00
2022-10-13T19:55:02.041Z,100658.49
2022-10-13T19:57:32.437Z,100656.67
2022-10-13T20:00:02.979Z,100654.52
2022-10-13T20:02:43.130Z,100654.17
2022-10-13T20:05:13.608Z,100658.95
2022-10-13T20:07:44.279Z,100657.34
2022-10-13T20:10:14.774Z,100656.98
2022-10-13T20:12:45.164Z,100652.28
2022-10-13T20:15:15.575Z,100654.65
2022-10-13T20:17:46.243Z,100654.54
2022-10-13T20:20:20.130Z,100656.38
2022-10-13T20:22:52.792Z,100650.98
2022-10-13T20:25:23.124Z,100647.36
2022-10-13T20:27:53.590Z,100649.00
2022-10-13T20:30:24.126Z,100650.75
2022-10-13T20:32:54.451Z,100651.46
2022-10-13T20:35:26.545Z,100650.88
2022-10-13T20:37:56.261Z,100658.94
2022-10-13T20:40:26.708Z,100657.81
2022-10-13T20:42:57.055Z,100660.77
2022-10-13T20:45:27.601Z,100665.00
2022-10-13T20:47:57.982Z,100666.79
2022-10-13T20:50:29.502Z,100669.11
2022-10-13T20:52:59.888Z,100668.02
2022-10-13T20:55:31.144Z,100664.23
2022-10-13T20:58:01.594Z,100659.08
2022-10-13T21:00:32.006Z,100656.58
2022-10-13T21:03:02.515Z,100654.88
2022-10-13T21:05:34.567Z,100651.38
2022-10-13T21:08:05.194Z,100648.57
2022-10-13T21:10:38.402Z,100649.50
2022-10-13T21:13:08.893Z,100647.10
2022-10-13T21:15:42.826Z,100648.37
2022-10-13T21:18:14.226Z,100645.95
2022-10-13T21:20:44.863Z,100645.95
2022-10-13T21:23:15.358Z,100645.66
2022-10-13T21:25:45.841Z,100641.95
2022-10-13T21:28:16.422Z,100640.26
2022-10-13T21:30:46.930Z,100645.22
2022-10-13T21:33:17.566Z,100646.15
2022-10-13T21:35:48.009Z,100652.77
2022-10-13T21:38:18.334Z,100654.23
2022-10-13T21:40:52.978Z,100654.93
2022-10-13T21:43:24.910Z,100658.84
2022-10-13T21:45:55.662Z,100658.33
2022-10-13T21:48:26.099Z,100657.30
2022-10-13T21:50:56.637Z,100660.35
2022-10-13T21:53:27.103Z,100663.16
2022-10-13T21:55:57.609Z,100663.35
2022-10-13T21:58:28.090Z,100666.00
2022-10-13T22:01:04.373Z,100662.30
2022-10-13T22:03:35.430Z,100665.14
2022-10-13T22:06:14.612Z,100666.03
2022-10-13T22:08:50.069Z,100666.73
2022-10-13T22:11:28.406Z,100666.61
2022-10-13T22:14:00.377Z,100667.70
2022-10-13T22:16:33.462Z,100665.23
2022-10-13T22:19:03.939Z,100663.30
2022-10-13T22:21:39.875Z,100662.79
2022-10-13T22:24:12.329Z,100664.08
2022-10-13T22:26:44.154Z,100661.79
2022-10-13T22:29:16.906Z,100666.59
2022-10-13T22:31:47.306Z,100669.67
2022-10-13T22:34:18.818Z,100672.78
2022-10-13T22:36:49.371Z,100668.39
2022-10-13T22:39:19.985Z,100668.18
2022-10-13T22:41:51.438Z,100665.17
2022-10-13T22:44:21.871Z,100664.66
2022-10-13T22:46:52.323Z,100661.81
2022-10-13T22:49:22.686Z,100659.27
2022-10-13T22:51:53.479Z,100658.02
2022-10-13T22:54:23.910Z,100658.55
2022-10-13T22:56:56.170Z,100662.33
2022-10-13T22:59:26.747Z,100664.16
2022-10-13T23:01:57.227Z,100659.77
2022-10-13T23:04:28.043Z,100657.11
2022-10-13T23:06:58.473Z,100655.89
2022-10-13T23:09:28.890Z,100653.27
2022-10-13T23:12:00.039Z,100655.38
2022-10-13T23:14:31.532Z,100654.73
2022-10-13T23:17:02.007Z,100660.04
2022-10-13T23:19:32.642Z,100659.52
2022-10-13T23:22:03.173Z,100663.11
2022-10-13T23:24:34.015Z,100659.61
2022-10-13T23:27:04.482Z,100658.58
2022-10-13T23:29:35.663Z,100655.05
2022-10-13T23:32:09.692Z,100657.02
2022-10-13T23:34:40.562Z,100659.56
2022-10-13T23:37:11.775Z,100661.73
2022-10-13T23:39:42.430Z,100661.05
2022-10-13T23:42:13.268Z,100658.63
2022-10-13T23:44:43.611Z,100658.02
2022-10-13T23:47:14.036Z,100656.84
2022-10-13T23:49:44.471Z,100660.40
2022-10-13T23:52:14.792Z,100660.63
2022-10-13T23:54:45.241Z,100653.26
2022-10-13T23:57:16.948Z,100648.77
2022-10-13T23:59:47.431Z,100644.07
